Time;durP1;ratioP1;P1;durP2;ratioP2;P2;SDS_P1;SDS_P2;PMS_P1;PMS_P2;Temp;Humidity;BMP_temperature;BMP_pressure;BME280_temperature;BME280_humidity;BME280_pressure;Samples;Min_cycle;Max_cycle;Signal;HPM_P1;HPM_P2
2022/02/07 00:02:09;;;;;;;26.35;2.75;;;;;;;;;;4934618;28;20050;-62
2022/02/07 00:04:41;;;;;;;19.52;1.58;;;;;;;;;;4935997;28;20038;-59
2022/02/07 00:07:09;;;;;;;29.65;2.60;;;;;;;;;;4940134;28;20499;-60
2022/02/07 00:09:34;;;;;;;6.70;1.27;;;;;;;;;;4934454;28;20027;-64
2022/02/07 00:12:04;;;;;;;8.10;1.35;;;;;;;;;;4937163;28;20031;-61
2022/02/07 00:14:32;;;;;;;11.45;1.42;;;;;;;;;;4952599;28;20555;-60
2022/02/07 00:17:00;;;;;;;12.88;1.88;;;;;;;;;;4932767;28;20039;-61
2022/02/07 00:19:30;;;;;;;12.10;2.40;;;;;;;;;;4935831;28;20047;-62
2022/02/07 00:21:59;;;;;;;9.75;1.67;;;;;;;;;;4937778;28;20093;-62
2022/02/07 00:24:24;;;;;;;22.67;1.58;;;;;;;;;;4934772;28;21178;-62
2022/02/07 00:26:52;;;;;;;17.55;2.25;;;;;;;;;;4921415;28;20038;-61
2022/02/07 00:29:18;;;;;;;5.85;1.10;;;;;;;;;;4930241;28;20027;-63
2022/02/07 00:31:44;;;;;;;7.68;1.52;;;;;;;;;;4934348;28;20034;-62
2022/02/07 00:37:49;;;;;;;6.40;1.55;;;;;;;;;;4936191;28;20125;-59
2022/02/07 00:45:41;;;;;;;17.38;1.90;;;;;;;;;;4917541;28;20042;-62
2022/02/07 00:48:08;;;;;;;14.27;1.63;;;;;;;;;;4935497;28;20031;-62
2022/02/07 00:50:34;;;;;;;14.85;3.05;;;;;;;;;;4934122;28;20050;-61
2022/02/07 00:53:05;;;;;;;15.05;1.92;;;;;;;;;;4936035;28;20222;-61
2022/02/07 00:55:33;;;;;;;13.65;2.65;;;;;;;;;;4937592;28;20387;-60
2022/02/07 00:57:59;;;;;;;12.10;1.30;;;;;;;;;;4939607;28;20086;-63
2022/02/07 01:00:24;;;;;;;10.02;1.42;;;;;;;;;;4920076;28;20034;-62
2022/02/07 01:02:50;;;;;;;15.23;1.92;;;;;;;;;;4953371;28;20054;-60
2022/02/07 01:05:18;;;;;;;24.27;2.88;;;;;;;;;;4920679;28;20150;-61
2022/02/07 01:07:47;;;;;;;21.80;1.70;;;;;;;;;;4940087;28;20015;-62
2022/02/07 01:10:15;;;;;;;16.27;1.85;;;;;;;;;;4950152;28;20033;-61
2022/02/07 01:13:00;;;;;;;13.63;1.35;;;;;;;;;;4934898;28;20082;-63
2022/02/07 01:15:45;;;;;;;17.38;2.50;;;;;;;;;;4938649;28;20261;-63
2022/02/07 01:48:17;;;;;;;16.57;2.83;;;;;;;;;;4945819;28;21003;-59
2022/02/07 01:55:48;;;;;;;17.05;2.70;;;;;;;;;;4937639;28;20494;-62
2022/02/07 01:58:16;;;;;;;13.43;1.75;;;;;;;;;;4945150;28;20039;-59
2022/02/07 02:00:44;;;;;;;25.48;3.53;;;;;;;;;;4914293;28;20030;-61
2022/02/07 02:03:12;;;;;;;15.75;2.83;;;;;;;;;;4937147;28;20031;-60
2022/02/07 02:05:38;;;;;;;13.85;1.48;;;;;;;;;;4951683;28;20062;-60
2022/02/07 02:08:04;;;;;;;13.38;1.88;;;;;;;;;;4936394;28;20119;-57
2022/02/07 02:10:33;;;;;;;21.85;2.90;;;;;;;;;;4937695;28;20053;-58
2022/02/07 02:13:15;;;;;;;13.90;1.92;;;;;;;;;;4937952;28;20043;-60
2022/02/07 02:16:08;;;;;;;5.88;1.15;;;;;;;;;;4939713;28;20030;-61
2022/02/07 02:45:39;;;;;;;12.02;1.75;;;;;;;;;;4942553;28;20034;-60
2022/02/07 02:48:15;;;;;;;10.48;1.88;;;;;;;;;;4941779;28;20058;-60
2022/02/07 02:50:42;;;;;;;19.00;2.53;;;;;;;;;;4939268;28;20046;-61
2022/02/07 02:53:11;;;;;;;20.20;2.28;;;;;;;;;;4937031;28;20482;-62
2022/02/07 02:55:43;;;;;;;22.75;2.00;;;;;;;;;;4937869;28;20026;-59
2022/02/07 02:58:15;;;;;;;23.10;2.90;;;;;;;;;;4936776;28;22115;-60
2022/02/07 03:00:41;;;;;;;11.50;2.03;;;;;;;;;;4935607;28;20034;-60
2022/02/07 03:03:07;;;;;;;22.10;2.63;;;;;;;;;;4936398;28;20069;-60
2022/02/07 03:05:33;;;;;;;16.42;2.33;;;;;;;;;;4936873;28;20456;-62
2022/02/07 03:07:58;;;;;;;17.50;2.25;;;;;;;;;;4951621;28;20034;-60
2022/02/07 03:13:16;;;;;;;25.77;2.63;;;;;;;;;;4937602;28;20140;-60
2022/02/07 03:18:26;;;;;;;13.32;2.85;;;;;;;;;;4952333;28;20042;-62
2022/02/07 03:20:57;;;;;;;20.63;1.98;;;;;;;;;;4936243;28;20035;-59
2022/02/07 03:23:24;;;;;;;8.85;1.52;;;;;;;;;;4952012;28;20138;-61
2022/02/07 03:25:50;;;;;;;23.27;3.08;;;;;;;;;;4939310;28;20046;-63
2022/02/07 03:28:21;;;;;;;23.42;2.45;;;;;;;;;;4929392;28;20031;-61
2022/02/07 03:30:47;;;;;;;18.95;2.17;;;;;;;;;;4938160;28;20117;-61
2022/02/07 03:33:13;;;;;;;18.25;1.58;;;;;;;;;;4932762;28;20553;-62
2022/02/07 03:35:41;;;;;;;15.63;2.05;;;;;;;;;;4939948;28;20027;-63
2022/02/07 03:38:07;;;;;;;13.60;1.92;;;;;;;;;;4938789;28;20023;-61
2022/02/07 03:40:33;;;;;;;21.23;2.63;;;;;;;;;;4940541;28;20038;-62
2022/02/07 03:43:01;;;;;;;21.83;2.40;;;;;;;;;;4919343;28;20399;-62
2022/02/07 03:45:26;;;;;;;26.88;2.33;;;;;;;;;;4931968;28;20046;-60
2022/02/07 03:47:52;;;;;;;14.43;1.95;;;;;;;;;;4939004;28;20127;-61
2022/02/07 03:50:21;;;;;;;21.48;2.55;;;;;;;;;;4950105;28;20051;-64
2022/02/07 03:52:51;;;;;;;25.63;2.63;;;;;;;;;;4939512;28;20039;-62
2022/02/07 03:55:16;;;;;;;32.47;3.83;;;;;;;;;;4939209;28;20042;-61
2022/02/07 03:57:46;;;;;;;26.88;2.78;;;;;;;;;;4937524;28;20027;-61
2022/02/07 04:00:15;;;;;;;13.35;2.53;;;;;;;;;;4938747;28;20497;-61
2022/02/07 04:02:50;;;;;;;28.15;2.80;;;;;;;;;;4935440;28;20023;-62
2022/02/07 04:07:50;;;;;;;23.45;3.05;;;;;;;;;;4938689;28;20129;-62
2022/02/07 04:10:19;;;;;;;34.92;2.80;;;;;;;;;;4935495;28;20461;-63
2022/02/07 04:12:52;;;;;;;23.70;2.88;;;;;;;;;;4938043;28;20041;-60
2022/02/07 04:15:22;;;;;;;31.00;3.17;;;;;;;;;;4917897;28;21625;-62
2022/02/07 04:18:00;;;;;;;43.63;3.35;;;;;;;;;;4939125;28;20078;-62
2022/02/07 04:20:26;;;;;;;27.67;2.92;;;;;;;;;;4935166;28;20039;-61
2022/02/07 04:22:56;;;;;;;22.00;2.15;;;;;;;;;;4940842;28;20038;-60
2022/02/07 04:25:22;;;;;;;10.05;1.92;;;;;;;;;;4938940;28;20974;-61
2022/02/07 04:27:50;;;;;;;22.30;2.15;;;;;;;;;;4937048;28;21632;-61
2022/02/07 04:30:15;;;;;;;15.80;2.33;;;;;;;;;;4933662;28;20045;-62
2022/02/07 04:32:44;;;;;;;8.63;1.48;;;;;;;;;;4941921;28;20035;-63
2022/02/07 04:35:10;;;;;;;22.70;2.92;;;;;;;;;;4936043;28;20171;-63
2022/02/07 04:37:35;;;;;;;25.55;2.72;;;;;;;;;;4923754;28;20822;-62
2022/02/07 04:40:04;;;;;;;13.20;2.35;;;;;;;;;;4936393;28;20143;-62
2022/02/07 04:42:31;;;;;;;11.30;1.75;;;;;;;;;;4905591;28;20047;-62
2022/02/07 04:50:30;;;;;;;22.30;3.63;;;;;;;;;;4935715;28;20051;-60
2022/02/07 04:58:01;;;;;;;12.27;2.38;;;;;;;;;;4936056;28;20035;-61
2022/02/07 05:03:24;;;;;;;32.45;2.92;;;;;;;;;;4935414;28;20153;-60
2022/02/07 05:13:54;;;;;;;17.45;3.38;;;;;;;;;;4948447;28;20127;-60
2022/02/07 05:18:49;;;;;;;20.90;3.03;;;;;;;;;;4937884;28;20047;-62
2022/02/07 05:21:19;;;;;;;24.63;3.20;;;;;;;;;;4943120;28;20034;-62
2022/02/07 05:23:47;;;;;;;21.30;2.00;;;;;;;;;;4924099;28;20041;-61
2022/02/07 05:26:15;;;;;;;12.32;2.03;;;;;;;;;;4954117;28;20106;-60
2022/02/07 05:28:46;;;;;;;18.73;2.50;;;;;;;;;;4934206;28;20558;-62
2022/02/07 05:31:12;;;;;;;16.42;2.08;;;;;;;;;;4931565;28;20042;-61
2022/02/07 05:33:43;;;;;;;10.10;1.90;;;;;;;;;;4930145;28;20463;-62
2022/02/07 05:36:09;;;;;;;17.05;2.28;;;;;;;;;;4932212;28;20031;-61
2022/02/07 05:38:40;;;;;;;19.20;2.25;;;;;;;;;;4935318;28;20114;-61
2022/02/07 05:41:08;;;;;;;15.13;1.55;;;;;;;;;;4934533;28;20031;-60
2022/02/07 05:43:40;;;;;;;21.02;2.75;;;;;;;;;;4931500;28;20035;-62
2022/02/07 05:49:47;;;;;;;22.83;2.30;;;;;;;;;;4939250;28;20050;-62
2022/02/07 05:52:13;;;;;;;13.27;1.95;;;;;;;;;;4936466;28;20039;-62
2022/02/07 05:54:38;;;;;;;5.75;1.23;;;;;;;;;;4930909;28;20069;-61
2022/02/07 05:57:06;;;;;;;16.50;2.75;;;;;;;;;;4931911;28;20464;-59
2022/02/07 05:59:31;;;;;;;24.30;2.47;;;;;;;;;;4952265;28;20030;-62
2022/02/07 06:02:00;;;;;;;21.80;2.72;;;;;;;;;;4937488;28;20561;-59
2022/02/07 06:04:25;;;;;;;26.50;2.38;;;;;;;;;;4920418;28;20046;-63
2022/02/07 06:06:57;;;;;;;25.52;2.85;;;;;;;;;;4937752;28;20563;-61
2022/02/07 06:09:28;;;;;;;17.60;2.00;;;;;;;;;;4938589;28;20046;-61
2022/02/07 06:11:55;;;;;;;27.58;2.55;;;;;;;;;;4930809;28;20043;-62
2022/02/07 06:14:23;;;;;;;19.27;2.50;;;;;;;;;;4945163;28;20024;-63
2022/02/07 06:16:50;;;;;;;20.27;2.08;;;;;;;;;;4952435;28;20047;-62
2022/02/07 06:19:18;;;;;;;39.00;3.28;;;;;;;;;;4938802;28;20129;-62
2022/02/07 06:21:46;;;;;;;17.10;1.50;;;;;;;;;;4940614;28;20042;-62
2022/02/07 06:24:14;;;;;;;13.40;2.15;;;;;;;;;;4939435;28;20040;-62
2022/02/07 06:26:42;;;;;;;27.98;3.13;;;;;;;;;;4939744;28;20039;-62
2022/02/07 06:29:10;;;;;;;17.67;2.58;;;;;;;;;;4939459;28;20034;-61
2022/02/07 06:31:35;;;;;;;27.08;3.10;;;;;;;;;;4937773;28;20479;-61
2022/02/07 06:34:00;;;;;;;19.45;1.98;;;;;;;;;;4938108;28;20037;-62
2022/02/07 06:36:28;;;;;;;18.23;3.17;;;;;;;;;;4936053;28;20043;-62
2022/02/07 06:38:54;;;;;;;24.90;3.20;;;;;;;;;;4929660;28;20047;-62
2022/02/07 06:41:19;;;;;;;23.60;3.22;;;;;;;;;;4940694;28;20093;-63
2022/02/07 06:43:47;;;;;;;26.75;3.38;;;;;;;;;;4939078;28;20034;-62
2022/02/07 06:46:15;;;;;;;20.13;3.13;;;;;;;;;;4931143;28;20035;-61
2022/02/07 06:48:45;;;;;;;14.38;2.95;;;;;;;;;;4926910;28;21969;-63
2022/02/07 06:51:16;;;;;;;27.63;3.33;;;;;;;;;;4938153;28;20038;-62
2022/02/07 06:53:42;;;;;;;25.88;3.03;;;;;;;;;;4931349;28;20022;-62
2022/02/07 06:56:07;;;;;;;25.08;3.58;;;;;;;;;;4932739;28;20933;-63
2022/02/07 06:58:33;;;;;;;21.30;2.75;;;;;;;;;;4936196;28;20131;-63
2022/02/07 07:01:01;;;;;;;26.23;3.25;;;;;;;;;;4938316;28;20159;-62
2022/02/07 07:03:34;;;;;;;29.52;3.03;;;;;;;;;;4944584;28;20023;-62
2022/02/07 07:06:01;;;;;;;;;;;;;;;;;;4940872;28;20027;-61
2022/02/07 07:08:27;;;;;;;36.15;4.18;;;;;;;;;;4942523;28;19921;-62
2022/02/07 07:10:58;;;;;;;27.63;3.50;;;;;;;;;;4936758;28;20932;-61
2022/02/07 07:13:39;;;;;;;21.38;2.65;;;;;;;;;;4944013;28;20031;-62
2022/02/07 07:16:25;;;;;;;22.95;2.60;;;;;;;;;;4958693;28;20102;-62
2022/02/07 07:18:55;;;;;;;24.52;2.17;;;;;;;;;;4957741;28;20062;-63
2022/02/07 07:21:25;;;;;;;11.52;2.10;;;;;;;;;;4940300;28;20035;-62
2022/02/07 07:23:56;;;;;;;27.08;3.78;;;;;;;;;;4942938;28;20039;-63
2022/02/07 07:26:26;;;;;;;20.02;3.20;;;;;;;;;;4941024;28;20031;-63
2022/02/07 07:28:53;;;;;;;25.80;2.85;;;;;;;;;;4940038;28;20045;-62
2022/02/07 07:31:22;;;;;;;33.40;3.72;;;;;;;;;;4940512;28;20034;-63
2022/02/07 07:33:51;;;;;;;28.65;3.10;;;;;;;;;;4950054;28;20039;-63
2022/02/07 07:36:17;;;;;;;34.30;3.38;;;;;;;;;;4938844;28;20054;-63
2022/02/07 07:38:45;;;;;;;21.42;4.03;;;;;;;;;;4940273;28;20704;-63
2022/02/07 07:41:11;;;;;;;29.75;3.28;;;;;;;;;;4938757;28;20110;-62
2022/02/07 07:43:39;;;;;;;15.75;2.63;;;;;;;;;;4937605;28;20027;-62
2022/02/07 07:46:09;;;;;;;43.40;3.75;;;;;;;;;;4939014;28;20121;-63
2022/02/07 07:48:40;;;;;;;28.63;3.40;;;;;;;;;;4937876;28;20030;-63
2022/02/07 07:51:24;;;;;;;33.03;3.28;;;;;;;;;;4926891;28;20494;-62
2022/02/07 08:02:13;;;;;;;28.88;2.70;;;;;;;;;;4942744;28;20046;-61
2022/02/07 08:04:41;;;;;;;36.75;4.10;;;;;;;;;;4941697;28;20047;-62
2022/02/07 08:07:14;;;;;;;41.17;4.07;;;;;;;;;;4941186;28;20094;-60
2022/02/07 08:12:56;;;;;;;47.78;4.03;;;;;;;;;;4942696;28;20590;-61
2022/02/07 08:15:26;;;;;;;27.55;2.90;;;;;;;;;;4934288;28;20067;-62
2022/02/07 08:17:52;;;;;;;22.50;2.83;;;;;;;;;;4942763;28;20031;-62
2022/02/07 08:20:18;;;;;;;22.02;3.65;;;;;;;;;;4942011;28;20402;-62
2022/02/07 08:22:45;;;;;;;43.60;4.53;;;;;;;;;;4942245;28;20034;-61
2022/02/07 08:25:13;;;;;;;39.90;4.78;;;;;;;;;;4942352;28;20053;-63
2022/02/07 08:27:39;;;;;;;31.02;3.03;;;;;;;;;;4943096;28;20089;-62
2022/02/07 08:30:06;;;;;;;36.53;4.82;;;;;;;;;;4941401;28;20077;-62
2022/02/07 08:32:31;;;;;;;23.33;2.67;;;;;;;;;;4935147;28;20031;-62
2022/02/07 08:35:02;;;;;;;17.98;3.53;;;;;;;;;;4939349;28;20141;-62
2022/02/07 08:37:27;;;;;;;50.38;5.00;;;;;;;;;;4913139;28;20097;-63
2022/02/07 08:39:58;;;;;;;30.73;3.50;;;;;;;;;;4937278;28;20073;-62
2022/02/07 08:43:01;;;;;;;23.08;3.17;;;;;;;;;;4936988;28;21173;-62
2022/02/07 08:45:29;;;;;;;21.67;2.95;;;;;;;;;;4937208;28;20038;-62
2022/02/07 08:47:56;;;;;;;21.60;2.30;;;;;;;;;;4940038;28;20053;-61
2022/02/07 08:50:25;;;;;;;26.63;3.45;;;;;;;;;;4934828;28;20047;-61
2022/02/07 08:52:52;;;;;;;29.63;3.13;;;;;;;;;;4928791;28;20105;-63
2022/02/07 08:55:29;;;;;;;31.75;3.28;;;;;;;;;;4937393;28;20040;-62
2022/02/07 08:57:59;;;;;;;30.40;4.00;;;;;;;;;;4936804;28;20030;-63
2022/02/07 09:03:20;;;;;;;28.08;4.03;;;;;;;;;;4938829;28;20062;-61
2022/02/07 09:05:55;;;;;;;32.30;3.42;;;;;;;;;;4948709;28;20600;-63
2022/02/07 09:08:26;;;;;;;30.45;3.60;;;;;;;;;;4937507;28;20039;-62
2022/02/07 09:10:52;;;;;;;19.70;3.15;;;;;;;;;;4944351;28;20114;-62
2022/02/07 09:13:29;;;;;;;20.67;3.92;;;;;;;;;;4953806;28;20548;-64
2022/02/07 09:16:16;;;;;;;31.75;3.78;;;;;;;;;;4937550;28;20053;-60
2022/02/07 09:18:46;;;;;;;18.30;2.60;;;;;;;;;;4955557;28;20403;-59
2022/02/07 09:21:15;;;;;;;33.80;3.50;;;;;;;;;;4940715;28;20126;-63
2022/02/07 09:23:41;;;;;;;23.90;3.63;;;;;;;;;;4924030;28;20110;-63
2022/02/07 09:26:11;;;;;;;22.05;2.90;;;;;;;;;;4957309;28;21959;-62
2022/02/07 09:28:39;;;;;;;29.25;3.42;;;;;;;;;;4956237;28;20023;-60
2022/02/07 09:31:04;;;;;;;22.08;3.13;;;;;;;;;;4931011;28;20038;-62
2022/02/07 09:33:30;;;;;;;22.33;2.72;;;;;;;;;;4935553;28;20043;-63
2022/02/07 09:36:00;;;;;;;22.30;3.05;;;;;;;;;;4931775;28;20474;-63
2022/02/07 09:38:32;;;;;;;15.52;2.67;;;;;;;;;;4936499;28;21141;-60
2022/02/07 09:40:58;;;;;;;24.63;3.63;;;;;;;;;;4936516;28;20045;-64
2022/02/07 09:43:31;;;;;;;28.98;2.78;;;;;;;;;;4932749;28;20061;-64
2022/02/07 09:46:05;;;;;;;27.98;3.35;;;;;;;;;;4934469;28;20039;-64
2022/02/07 09:48:34;;;;;;;;;;;;;;;;;;4935589;28;20963;-60
2022/02/07 09:50:59;;;;;;;20.42;2.80;;;;;;;;;;4933212;28;20054;-62
2022/02/07 09:53:27;;;;;;;14.90;2.83;;;;;;;;;;4936212;28;21910;-64
2022/02/07 09:55:57;;;;;;;18.77;2.90;;;;;;;;;;4935265;28;20094;-61
2022/02/07 09:58:22;;;;;;;19.00;2.65;;;;;;;;;;4934456;28;20030;-63
2022/02/07 10:00:58;;;;;;;21.83;3.20;;;;;;;;;;4934506;28;20542;-63
2022/02/07 10:03:30;;;;;;;22.90;2.72;;;;;;;;;;4936214;28;20065;-63
2022/02/07 10:06:06;;;;;;;14.70;3.13;;;;;;;;;;4930239;28;20880;-62
2022/02/07 10:18:58;;;;;;;24.80;3.63;;;;;;;;;;4937774;28;20350;-63
2022/02/07 10:40:42;;;;;;;29.25;3.42;;;;;;;;;;4939311;28;20081;-60
2022/02/07 10:45:44;;;;;;;;;;;;;;;;;;4939997;28;20402;-59
2022/02/07 10:48:12;;;;;;;28.60;3.30;;;;;;;;;;4924978;28;20430;-61
2022/02/07 10:50:37;;;;;;;23.02;3.50;;;;;;;;;;4921310;28;21006;-60
2022/02/07 10:53:02;;;;;;;23.13;3.15;;;;;;;;;;4943422;28;20039;-62
2022/02/07 10:55:36;;;;;;;27.38;3.67;;;;;;;;;;4955614;28;20034;-59
2022/02/07 10:58:03;;;;;;;20.13;3.65;;;;;;;;;;4937442;28;20031;-63
2022/02/07 11:00:37;;;;;;;29.25;3.00;;;;;;;;;;4939354;28;20035;-59
2022/02/07 11:03:22;;;;;;;19.45;2.75;;;;;;;;;;4940168;28;20043;-62
2022/02/07 11:05:55;;;;;;;15.48;2.45;;;;;;;;;;4940588;28;20031;-61
2022/02/07 11:08:36;;;;;;;;;;;;;;;;;;4957916;28;20087;-62
2022/02/07 11:13:58;;;;;;;23.33;2.63;;;;;;;;;;4938978;28;20027;-62
2022/02/07 11:19:13;;;;;;;19.23;2.88;;;;;;;;;;4938477;28;20027;-62
2022/02/07 11:22:06;;;;;;;20.98;2.50;;;;;;;;;;4938944;28;20085;-62
2022/02/07 11:24:56;;;;;;;21.10;2.63;;;;;;;;;;4947554;28;20047;-63
2022/02/07 11:27:41;;;;;;;15.80;2.60;;;;;;;;;;4955629;28;20093;-62
2022/02/07 11:30:10;;;;;;;;;;;;;;;;;;4939303;28;20238;-62
2022/02/07 11:35:12;;;;;;;15.00;2.85;;;;;;;;;;4941553;28;20039;-60
2022/02/07 11:37:41;;;;;;;21.92;3.03;;;;;;;;;;4939322;28;20075;-60
2022/02/07 11:40:25;;;;;;;21.27;2.95;;;;;;;;;;4938164;28;20044;-61
2022/02/07 11:43:09;;;;;;;16.58;2.35;;;;;;;;;;4953910;28;20042;-62
2022/02/07 11:45:54;;;;;;;24.33;3.30;;;;;;;;;;4938384;28;20093;-63
2022/02/07 11:48:28;;;;;;;16.77;2.80;;;;;;;;;;4935136;28;20119;-64
2022/02/07 11:51:02;;;;;;;19.88;2.45;;;;;;;;;;4939874;28;20112;-60
2022/02/07 11:53:34;;;;;;;12.10;2.30;;;;;;;;;;4952526;28;20030;-59
2022/02/07 11:56:13;;;;;;;20.52;1.83;;;;;;;;;;4939846;28;20069;-61
2022/02/07 11:59:10;;;;;;;16.80;2.65;;;;;;;;;;4937626;28;20840;-60
2022/02/07 12:01:43;;;;;;;10.73;2.08;;;;;;;;;;4936056;28;20051;-60
2022/02/07 12:04:11;;;;;;;14.83;3.07;;;;;;;;;;4955879;28;20043;-63
2022/02/07 12:06:36;;;;;;;16.92;3.15;;;;;;;;;;4920955;28;20493;-60
2022/02/07 12:09:03;;;;;;;17.27;2.72;;;;;;;;;;4941066;28;20046;-60
2022/02/07 12:11:48;;;;;;;16.45;3.05;;;;;;;;;;4936907;28;20023;-61
2022/02/07 12:14:30;;;;;;;17.20;2.50;;;;;;;;;;4937724;28;21813;-62
2022/02/07 12:16:58;;;;;;;13.02;2.28;;;;;;;;;;4941303;28;20030;-61
2022/02/07 12:19:41;;;;;;;15.35;2.42;;;;;;;;;;4939945;28;20415;-60
2022/02/07 12:22:18;;;;;;;15.20;2.20;;;;;;;;;;4928110;28;20094;-62
2022/02/07 12:24:48;;;;;;;20.20;2.08;;;;;;;;;;4940301;28;20101;-62
2022/02/07 12:27:22;;;;;;;11.13;2.20;;;;;;;;;;4956801;28;20153;-64
2022/02/07 12:30:16;;;;;;;23.37;2.30;;;;;;;;;;4939738;28;20062;-62
2022/02/07 12:32:45;;;;;;;11.43;2.88;;;;;;;;;;4933914;28;20294;-60
2022/02/07 12:35:13;;;;;;;15.60;2.20;;;;;;;;;;4926688;28;20050;-63
2022/02/07 12:37:40;;;;;;;18.73;2.53;;;;;;;;;;4933407;28;20652;-61
2022/02/07 12:40:07;;;;;;;16.30;2.08;;;;;;;;;;4937406;28;20110;-61
2022/02/07 12:42:32;;;;;;;19.60;3.53;;;;;;;;;;4937800;28;20054;-60
2022/02/07 12:44:58;;;;;;;16.63;2.13;;;;;;;;;;4932801;28;20371;-60
2022/02/07 12:47:27;;;;;;;15.20;2.40;;;;;;;;;;4929962;28;20032;-62
2022/02/07 12:49:56;;;;;;;20.20;2.47;;;;;;;;;;4935138;28;20051;-61
2022/02/07 12:52:37;;;;;;;15.60;1.88;;;;;;;;;;4932926;28;20067;-62
2022/02/07 12:55:08;;;;;;;18.02;2.80;;;;;;;;;;4936666;28;20372;-60
2022/02/07 12:57:40;;;;;;;18.55;2.47;;;;;;;;;;4939154;28;20085;-59
2022/02/07 13:00:13;;;;;;;7.65;1.70;;;;;;;;;;4935320;28;20047;-62
2022/02/07 13:02:43;;;;;;;28.52;2.63;;;;;;;;;;4935850;28;20118;-61
2022/02/07 13:05:10;;;;;;;16.50;1.77;;;;;;;;;;4935891;28;20045;-59
2022/02/07 13:07:43;;;;;;;16.15;2.00;;;;;;;;;;4935028;28;20510;-60
2022/02/07 13:10:12;;;;;;;13.95;1.83;;;;;;;;;;4933731;28;20019;-58
2022/02/07 13:15:25;;;;;;;14.88;1.77;;;;;;;;;;4934682;28;20027;-62
2022/02/07 13:17:54;;;;;;;8.40;2.08;;;;;;;;;;4936900;28;20049;-60
2022/02/07 13:20:22;;;;;;;14.60;1.60;;;;;;;;;;4951295;28;20096;-62
2022/02/07 13:23:00;;;;;;;12.25;2.25;;;;;;;;;;4933221;28;20034;-59
2022/02/07 13:25:36;;;;;;;13.40;2.17;;;;;;;;;;4933979;28;20169;-62
2022/02/07 13:28:01;;;;;;;8.27;1.95;;;;;;;;;;4932888;28;20027;-61
2022/02/07 13:30:29;;;;;;;19.38;2.30;;;;;;;;;;4910737;28;20030;-63
2022/02/07 13:32:55;;;;;;;11.65;1.88;;;;;;;;;;4953618;28;20030;-62
2022/02/07 13:35:21;;;;;;;18.13;2.40;;;;;;;;;;4935368;28;20601;-61
2022/02/07 13:37:48;;;;;;;16.13;1.63;;;;;;;;;;4939225;28;20031;-60
2022/02/07 13:40:22;;;;;;;8.38;1.50;;;;;;;;;;4933832;28;20393;-61
2022/02/07 13:42:48;;;;;;;22.00;2.00;;;;;;;;;;4936615;28;20051;-63
2022/02/07 13:45:19;;;;;;;13.40;2.33;;;;;;;;;;4938375;28;20031;-64
2022/02/07 13:47:49;;;;;;;12.23;1.83;;;;;;;;;;4941237;28;20039;-65
2022/02/07 13:50:22;;;;;;;15.25;2.25;;;;;;;;;;4954188;28;20047;-61
2022/02/07 13:52:49;;;;;;;22.42;1.98;;;;;;;;;;4933519;28;20042;-59
2022/02/07 13:55:19;;;;;;;19.40;2.47;;;;;;;;;;4939506;28;20859;-63
2022/02/07 13:57:48;;;;;;;12.65;1.90;;;;;;;;;;4955940;28;21972;-61
2022/02/07 14:00:17;;;;;;;8.02;1.83;;;;;;;;;;4940121;28;20130;-62
2022/02/07 14:02:44;;;;;;;16.17;1.92;;;;;;;;;;4942602;28;20038;-61
2022/02/07 14:05:13;;;;;;;11.02;2.40;;;;;;;;;;4942751;28;20035;-62
2022/02/07 14:07:51;;;;;;;25.55;2.63;;;;;;;;;;4930830;28;20113;-60
2022/02/07 14:10:21;;;;;;;11.30;1.77;;;;;;;;;;4942027;28;20027;-61
2022/02/07 14:12:52;;;;;;;13.57;1.70;;;;;;;;;;4937768;28;20066;-61
2022/02/07 14:15:17;;;;;;;15.50;1.70;;;;;;;;;;4924970;28;20047;-60
2022/02/07 14:17:47;;;;;;;20.45;2.42;;;;;;;;;;4928394;28;20050;-62
2022/02/07 14:20:29;;;;;;;16.42;2.33;;;;;;;;;;4943135;28;20122;-60
2022/02/07 14:22:57;;;;;;;12.25;2.33;;;;;;;;;;4944891;28;20039;-62
2022/02/07 14:25:27;;;;;;;16.05;2.03;;;;;;;;;;4941575;28;20082;-62
2022/02/07 14:27:53;;;;;;;17.73;3.05;;;;;;;;;;4937313;28;20141;-62
2022/02/07 14:30:19;;;;;;;19.20;1.75;;;;;;;;;;4931536;28;20041;-62
2022/02/07 14:32:46;;;;;;;10.23;1.98;;;;;;;;;;4959026;28;20031;-62
2022/02/07 14:35:14;;;;;;;20.10;2.10;;;;;;;;;;4940689;28;20069;-63
2022/02/07 14:37:40;;;;;;;18.70;1.73;;;;;;;;;;4919633;28;21033;-62
2022/02/07 14:40:08;;;;;;;10.20;1.75;;;;;;;;;;4941966;28;20066;-60
2022/02/07 14:42:37;;;;;;;14.60;1.85;;;;;;;;;;4944492;28;20951;-62
2022/02/07 14:45:14;;;;;;;9.50;1.50;;;;;;;;;;4943403;28;20059;-60
2022/02/07 14:47:51;;;;;;;11.40;1.30;;;;;;;;;;4942817;28;20063;-63
2022/02/07 14:50:21;;;;;;;14.63;1.73;;;;;;;;;;4943631;28;20058;-59
2022/02/07 14:52:49;;;;;;;12.82;1.33;;;;;;;;;;4956360;28;21819;-63
2022/02/07 14:55:14;;;;;;;17.85;1.42;;;;;;;;;;4934691;28;20027;-63
2022/02/07 14:57:45;;;;;;;17.98;1.65;;;;;;;;;;4941685;28;20039;-63
2022/02/07 15:00:12;;;;;;;15.93;1.67;;;;;;;;;;4943987;28;20189;-62
2022/02/07 15:02:40;;;;;;;13.20;2.05;;;;;;;;;;4949894;28;20034;-65
2022/02/07 15:05:06;;;;;;;5.60;1.00;;;;;;;;;;4953359;28;20038;-64
2022/02/07 15:07:31;;;;;;;11.18;2.08;;;;;;;;;;4935563;28;20035;-59
2022/02/07 15:09:59;;;;;;;16.80;1.52;;;;;;;;;;4942673;28;20539;-60
2022/02/07 15:12:24;;;;;;;10.75;1.38;;;;;;;;;;4941101;28;20020;-63
2022/02/07 15:14:52;;;;;;;7.78;1.33;;;;;;;;;;4933292;28;20050;-60
2022/02/07 15:17:21;;;;;;;12.32;1.77;;;;;;;;;;4942415;28;20381;-60
2022/02/07 15:19:50;;;;;;;20.98;1.63;;;;;;;;;;4943084;28;22042;-62
2022/02/07 15:22:17;;;;;;;7.10;1.30;;;;;;;;;;4942329;28;20062;-60
2022/02/07 15:24:43;;;;;;;17.58;2.20;;;;;;;;;;4942572;28;20032;-61
2022/02/07 15:27:11;;;;;;;15.13;2.17;;;;;;;;;;4943272;28;20043;-64
2022/02/07 15:29:37;;;;;;;12.73;1.45;;;;;;;;;;4959463;28;20058;-59
2022/02/07 15:34:52;;;;;;;15.63;1.90;;;;;;;;;;4941712;28;20039;-63
2022/02/07 15:37:21;;;;;;;16.27;2.03;;;;;;;;;;4958478;28;20461;-61
2022/02/07 15:39:48;;;;;;;15.95;1.83;;;;;;;;;;4926804;28;21050;-63
2022/02/07 15:42:14;;;;;;;14.65;1.55;;;;;;;;;;4941504;28;20214;-59
2022/02/07 15:44:44;;;;;;;6.50;1.35;;;;;;;;;;4940436;28;20042;-63
2022/02/07 15:47:12;;;;;;;5.82;1.60;;;;;;;;;;4940544;28;20382;-61
2022/02/07 15:49:43;;;;;;;12.00;1.88;;;;;;;;;;4953093;28;20050;-63
2022/02/07 15:52:09;;;;;;;16.17;1.60;;;;;;;;;;4933675;28;20031;-60
2022/02/07 15:54:39;;;;;;;13.88;1.90;;;;;;;;;;4942852;28;20070;-61
2022/02/07 15:57:13;;;;;;;9.10;1.30;;;;;;;;;;4940211;28;20035;-62
2022/02/07 15:59:42;;;;;;;10.43;1.40;;;;;;;;;;4948587;28;20034;-60
2022/02/07 16:02:07;;;;;;;13.57;1.90;;;;;;;;;;4932349;28;20046;-60
2022/02/07 16:04:33;;;;;;;7.80;2.10;;;;;;;;;;4937970;28;20069;-58
2022/02/07 16:06:59;;;;;;;19.55;1.50;;;;;;;;;;4938035;28;20035;-60
2022/02/07 16:09:25;;;;;;;11.27;1.17;;;;;;;;;;4941219;28;20172;-59
2022/02/07 16:11:57;;;;;;;16.73;1.90;;;;;;;;;;4937486;28;20059;-65
2022/02/07 16:14:24;;;;;;;13.65;1.58;;;;;;;;;;4957469;28;20041;-60
2022/02/07 16:16:53;;;;;;;10.07;2.22;;;;;;;;;;4936999;28;20062;-65
2022/02/07 16:19:18;;;;;;;9.10;2.20;;;;;;;;;;4937445;28;20031;-64
2022/02/07 16:21:49;;;;;;;6.43;1.17;;;;;;;;;;4940882;28;20257;-60
2022/02/07 16:24:20;;;;;;;6.32;1.52;;;;;;;;;;4941860;28;20031;-62
2022/02/07 16:26:46;;;;;;;11.43;1.30;;;;;;;;;;4942149;28;20485;-63
2022/02/07 16:29:14;;;;;;;8.98;1.52;;;;;;;;;;4921939;28;20030;-63
2022/02/07 16:31:39;;;;;;;18.67;1.70;;;;;;;;;;4939647;28;20037;-63
2022/02/07 16:34:05;;;;;;;18.77;1.73;;;;;;;;;;4923007;28;20030;-64
2022/02/07 16:36:31;;;;;;;9.38;1.50;;;;;;;;;;4938523;28;20765;-64
2022/02/07 16:38:56;;;;;;;14.60;1.60;;;;;;;;;;4941391;28;20057;-64
2022/02/07 16:41:25;;;;;;;12.35;1.40;;;;;;;;;;4939234;28;20038;-63
2022/02/07 16:43:51;;;;;;;11.00;1.70;;;;;;;;;;4908139;28;20035;-63
2022/02/07 16:46:36;;;;;;;11.10;1.73;;;;;;;;;;4940832;28;20083;-62
2022/02/07 16:49:03;;;;;;;10.07;1.83;;;;;;;;;;4941462;28;20117;-63
2022/02/07 16:51:34;;;;;;;7.72;1.30;;;;;;;;;;4938789;28;20030;-63
2022/02/07 16:54:00;;;;;;;12.00;1.38;;;;;;;;;;4942713;28;20039;-65
2022/02/07 16:56:26;;;;;;;14.38;2.13;;;;;;;;;;4941521;28;20041;-64
2022/02/07 16:58:51;;;;;;;17.45;1.98;;;;;;;;;;4923581;28;20031;-63
2022/02/07 17:01:17;;;;;;;15.95;1.70;;;;;;;;;;4930130;28;20047;-65
2022/02/07 17:03:43;;;;;;;5.75;0.82;;;;;;;;;;4922306;28;20047;-63
2022/02/07 17:06:08;;;;;;;14.63;1.55;;;;;;;;;;4935640;28;20043;-62
2022/02/07 17:08:34;;;;;;;20.67;2.08;;;;;;;;;;4940664;28;20054;-66
2022/02/07 17:11:33;;;;;;;18.55;1.98;;;;;;;;;;4941690;28;20039;-62
2022/02/07 17:13:58;;;;;;;14.05;1.60;;;;;;;;;;4939751;28;20140;-64
2022/02/07 17:16:24;;;;;;;15.77;2.10;;;;;;;;;;4938681;28;20696;-64
2022/02/07 17:18:49;;;;;;;18.80;1.73;;;;;;;;;;4939271;28;20031;-63
2022/02/07 17:21:15;;;;;;;7.63;1.80;;;;;;;;;;4935999;28;20027;-64
2022/02/07 17:23:40;;;;;;;7.72;1.58;;;;;;;;;;4939048;28;20019;-65
2022/02/07 17:26:07;;;;;;;10.70;1.73;;;;;;;;;;4940031;28;20365;-65
2022/02/07 17:28:33;;;;;;;17.05;1.98;;;;;;;;;;4939694;28;20147;-65
2022/02/07 17:30:59;;;;;;;18.63;2.05;;;;;;;;;;4950808;28;20547;-64
2022/02/07 17:33:27;;;;;;;15.18;1.80;;;;;;;;;;4939957;28;20026;-65
2022/02/07 17:35:56;;;;;;;7.25;1.60;;;;;;;;;;4934502;28;20070;-64